Bellingham, WA

4:46 AM PDT on August 28, 2014 (GMT -0700)
Orcas Island | Change Station
CLOSE
Current Station
Airport
Location: Eastsound,
Elevation: 30 ft
Nearby Weather Stations

Elev 30 ft 48.71 °N, 122.91 °W | Updated 11 minutes ago

Clear
Clear
59 °F
Feels Like 59 °F
N
13
Wind Variable Wind from South

Today
High -- | Low -- °F
--% Chance of Precip.
Yesterday
High -- | Low -- °F
Precip. -- in
6:21 AM 7:59 PM
Waxing Crescent, 8% visible
Pressure 30.00 in
Visibility 10.0 miles
Clouds Clear
Dew Point 57 °F
Humidity 94%
Rainfall 0.00 in
Snow Depth Not available.
UV 0 out of 12
Pollen 2.50 out of 12
PM2.5 Good
Flu Activity Not available.
METAR KORS 281135Z AUTO 19011KT 10SM CLR 15/14 A3000 RMK AO2

More Conditions Fewer Conditions

Pressure 30.00 in
Visibility 10.0 miles
Clouds Clear
Dew Point 57 °F
Humidity 94%
Rainfall 0.00 in
Snow Depth Not available.
UV 0 out of 12
Pollen 2.50 out of 12
PM2.5 Good
Flu Activity Not available.
METAR KORS 281135Z AUTO 19011KT 10SM CLR 15/14 A3000 RMK AO2

More Conditions Fewer Conditions

10-Day Weather Forecast

Almanac

Astronomy

Aug. 28, 2014 Rise Set
Actual Time 6:21 AM PDT 7:59 PM PDT
Civil Twilight 5:48 AM PDT 8:32 PM PDT
Nautical Twilight 5:07 AM PDT 9:13 PM PDT
Astronomical Twilight 4:23 AM PDT 9:57 PM PDT
Moon 9:37 AM PDT 9:06 PM PDT
Length of Visible Light 14h 44m
Length of Day
13h 38m
Tomorrow will be 3m 25s shorter.
Waxing Crescent, 8% of the Moon is Illuminated
Today
Waxing Crescent
Sep 2
First Quarter
Sep 8
Full
Sep 15
Last Quarter
Sep 24
New

Today's Extremes

State Highs State Lows

Community

WunderPhotos

Upload Photos

1,747,929 photos uploaded!

Nearby

Air Quality

  Air Quality AQ Index Pollutant
Yesterday Good
PM2.5
Current Good
PM2.5
Thursday Good
OZONE
Thursday Good
PM2.5
Friday Good
OZONE
Friday Good
PM2.5
Saturday Good
OZONE
Saturday Good
PM2.5

Snow Depth

Station Depth Elevation
Elbow Lake 0 in 3200 ft
Beaver Pass 0 in 3620 ft
Dungeness 0 in 4100 ft
Mount Crag 0 in 4050 ft
Alpine Meadows 0 in 3500 ft

Earthquake Activity

City Distance Mag. Time & Date
No recent earthquake activity has been reported nearby.
Minimum magnitude displayed is 2.5.

Coastal Water Temperatures

Place Temperature
Cherry Point, WA 61.0 °F
Port Townsend, WA 52.0 °F
Friday Harbor, WA 53.1 °F
Port Angeles, WA 54.0 °F

Nearby Weather Stations